sensor_id;sensor_type;location;lat;lon;timestamp;P1;durP1;ratioP1;P2;durP2;ratioP2
4971;SDS011;2501;51.214;6.768;2022-12-20T00:01:35;2.40;;;2.30;;
4971;SDS011;2501;51.214;6.768;2022-12-20T00:04:04;6.80;;;2.30;;
4971;SDS011;2501;51.214;6.768;2022-12-20T00:06:33;3.60;;;2.40;;
4971;SDS011;2501;51.214;6.768;2022-12-20T00:09:03;3.45;;;2.80;;
4971;SDS011;2501;51.214;6.768;2022-12-20T00:11:33;4.80;;;3.13;;
4971;SDS011;2501;51.214;6.768;2022-12-20T00:14:07;2.85;;;2.30;;
4971;SDS011;2501;51.214;6.768;2022-12-20T00:16:36;3.90;;;2.30;;
4971;SDS011;2501;51.214;6.768;2022-12-20T00:19:05;2.83;;;2.50;;
4971;SDS011;2501;51.214;6.768;2022-12-20T00:21:34;2.57;;;2.37;;
4971;SDS011;2501;51.214;6.768;2022-12-20T00:24:03;2.35;;;2.00;;
4971;SDS011;2501;51.214;6.768;2022-12-20T00:26:33;2.88;;;2.65;;
4971;SDS011;2501;51.214;6.768;2022-12-20T00:29:02;5.85;;;2.30;;
4971;SDS011;2501;51.214;6.768;2022-12-20T00:31:34;2.90;;;2.47;;
4971;SDS011;2501;51.214;6.768;2022-12-20T00:34:02;4.20;;;2.45;;
4971;SDS011;2501;51.214;6.768;2022-12-20T00:36:31;5.32;;;2.70;;
4971;SDS011;2501;51.214;6.768;2022-12-20T00:39:00;8.15;;;3.60;;
4971;SDS011;2501;51.214;6.768;2022-12-20T00:41:30;6.85;;;2.50;;
4971;SDS011;2501;51.214;6.768;2022-12-20T00:44:00;3.95;;;2.40;;
4971;SDS011;2501;51.214;6.768;2022-12-20T00:46:29;2.78;;;2.53;;
4971;SDS011;2501;51.214;6.768;2022-12-20T00:49:01;5.80;;;3.08;;
4971;SDS011;2501;51.214;6.768;2022-12-20T00:51:29;5.10;;;2.42;;
4971;SDS011;2501;51.214;6.768;2022-12-20T00:53:58;4.00;;;3.60;;
4971;SDS011;2501;51.214;6.768;2022-12-20T00:56:27;8.35;;;4.30;;
4971;SDS011;2501;51.214;6.768;2022-12-20T00:58:56;10.00;;;4.32;;
4971;SDS011;2501;51.214;6.768;2022-12-20T01:01:25;8.75;;;5.18;;
4971;SDS011;2501;51.214;6.768;2022-12-20T01:03:55;8.25;;;3.78;;
4971;SDS011;2501;51.214;6.768;2022-12-20T01:06:26;11.60;;;4.95;;
4971;SDS011;2501;51.214;6.768;2022-12-20T01:08:56;10.02;;;5.10;;
4971;SDS011;2501;51.214;6.768;2022-12-20T01:11:25;18.00;;;7.40;;
4971;SDS011;2501;51.214;6.768;2022-12-20T01:13:56;11.43;;;5.70;;
4971;SDS011;2501;51.214;6.768;2022-12-20T01:16:30;7.27;;;4.23;;
4971;SDS011;2501;51.214;6.768;2022-12-20T01:19:00;14.23;;;6.70;;
4971;SDS011;2501;51.214;6.768;2022-12-20T01:21:31;5.93;;;3.20;;
4971;SDS011;2501;51.214;6.768;2022-12-20T01:24:00;8.25;;;4.60;;
4971;SDS011;2501;51.214;6.768;2022-12-20T01:26:28;9.77;;;5.45;;
4971;SDS011;2501;51.214;6.768;2022-12-20T01:28:58;5.03;;;3.42;;
4971;SDS011;2501;51.214;6.768;2022-12-20T01:31:28;3.50;;;3.20;;
4971;SDS011;2501;51.214;6.768;2022-12-20T01:33:57;7.15;;;3.10;;
4971;SDS011;2501;51.214;6.768;2022-12-20T01:36:28;7.53;;;4.43;;
4971;SDS011;2501;51.214;6.768;2022-12-20T01:39:00;5.20;;;3.13;;
4971;SDS011;2501;51.214;6.768;2022-12-20T01:41:31;5.88;;;4.13;;
4971;SDS011;2501;51.214;6.768;2022-12-20T01:44:02;3.38;;;2.70;;
4971;SDS011;2501;51.214;6.768;2022-12-20T01:46:35;6.03;;;3.58;;
4971;SDS011;2501;51.214;6.768;2022-12-20T01:49:04;6.40;;;3.42;;
4971;SDS011;2501;51.214;6.768;2022-12-20T01:51:42;4.47;;;3.00;;
4971;SDS011;2501;51.214;6.768;2022-12-20T01:54:13;5.25;;;3.10;;
4971;SDS011;2501;51.214;6.768;2022-12-20T01:56:46;4.35;;;3.95;;
4971;SDS011;2501;51.214;6.768;2022-12-20T01:59:18;4.80;;;3.70;;
4971;SDS011;2501;51.214;6.768;2022-12-20T02:01:47;4.90;;;3.60;;
4971;SDS011;2501;51.214;6.768;2022-12-20T02:04:16;7.40;;;3.22;;
4971;SDS011;2501;51.214;6.768;2022-12-20T02:06:47;5.00;;;4.10;;
4971;SDS011;2501;51.214;6.768;2022-12-20T02:09:15;4.97;;;3.70;;
4971;SDS011;2501;51.214;6.768;2022-12-20T02:11:47;8.67;;;4.03;;
4971;SDS011;2501;51.214;6.768;2022-12-20T02:14:35;6.18;;;5.10;;
4971;SDS011;2501;51.214;6.768;2022-12-20T02:17:18;7.63;;;4.28;;
4971;SDS011;2501;51.214;6.768;2022-12-20T02:20:04;6.07;;;4.67;;
4971;SDS011;2501;51.214;6.768;2022-12-20T02:22:56;9.60;;;5.30;;
4971;SDS011;2501;51.214;6.768;2022-12-20T02:25:43;7.50;;;4.43;;
4971;SDS011;2501;51.214;6.768;2022-12-20T02:28:29;10.30;;;4.90;;
4971;SDS011;2501;51.214;6.768;2022-12-20T02:31:12;5.72;;;4.00;;
4971;SDS011;2501;51.214;6.768;2022-12-20T02:33:46;9.23;;;5.87;;
4971;SDS011;2501;51.214;6.768;2022-12-20T02:36:15;6.57;;;5.30;;
4971;SDS011;2501;51.214;6.768;2022-12-20T02:38:45;4.30;;;3.90;;
4971;SDS011;2501;51.214;6.768;2022-12-20T02:41:14;5.93;;;4.10;;
4971;SDS011;2501;51.214;6.768;2022-12-20T02:43:47;8.07;;;4.55;;
4971;SDS011;2501;51.214;6.768;2022-12-20T02:46:33;5.20;;;4.30;;
4971;SDS011;2501;51.214;6.768;2022-12-20T02:49:04;6.18;;;3.78;;
4971;SDS011;2501;51.214;6.768;2022-12-20T02:51:38;4.78;;;3.60;;
4971;SDS011;2501;51.214;6.768;2022-12-20T02:54:08;5.28;;;3.90;;
4971;SDS011;2501;51.214;6.768;2022-12-20T02:56:37;6.22;;;4.18;;
4971;SDS011;2501;51.214;6.768;2022-12-20T02:59:10;8.70;;;4.88;;
4971;SDS011;2501;51.214;6.768;2022-12-20T03:01:46;5.00;;;3.97;;
4971;SDS011;2501;51.214;6.768;2022-12-20T03:04:17;5.68;;;4.57;;
4971;SDS011;2501;51.214;6.768;2022-12-20T03:06:54;6.80;;;4.50;;
4971;SDS011;2501;51.214;6.768;2022-12-20T03:09:24;5.70;;;4.23;;
4971;SDS011;2501;51.214;6.768;2022-12-20T03:11:52;5.90;;;4.43;;
4971;SDS011;2501;51.214;6.768;2022-12-20T03:14:21;5.10;;;4.38;;
4971;SDS011;2501;51.214;6.768;2022-12-20T03:16:52;6.70;;;4.20;;
4971;SDS011;2501;51.214;6.768;2022-12-20T03:19:21;7.38;;;4.22;;
4971;SDS011;2501;51.214;6.768;2022-12-20T03:21:50;4.75;;;4.30;;
4971;SDS011;2501;51.214;6.768;2022-12-20T03:24:18;5.67;;;4.27;;
4971;SDS011;2501;51.214;6.768;2022-12-20T03:26:47;6.57;;;4.55;;
4971;SDS011;2501;51.214;6.768;2022-12-20T03:29:15;5.47;;;4.22;;
4971;SDS011;2501;51.214;6.768;2022-12-20T03:31:44;7.60;;;4.70;;
4971;SDS011;2501;51.214;6.768;2022-12-20T03:34:15;6.32;;;5.10;;
4971;SDS011;2501;51.214;6.768;2022-12-20T03:36:43;5.47;;;4.37;;
4971;SDS011;2501;51.214;6.768;2022-12-20T03:39:12;5.57;;;4.43;;
4971;SDS011;2501;51.214;6.768;2022-12-20T03:41:40;6.45;;;4.15;;
4971;SDS011;2501;51.214;6.768;2022-12-20T03:44:09;5.40;;;4.40;;
4971;SDS011;2501;51.214;6.768;2022-12-20T03:46:37;6.32;;;4.32;;
4971;SDS011;2501;51.214;6.768;2022-12-20T03:49:06;6.60;;;4.37;;
4971;SDS011;2501;51.214;6.768;2022-12-20T03:51:37;8.77;;;5.10;;
4971;SDS011;2501;51.214;6.768;2022-12-20T03:54:05;6.13;;;4.60;;
4971;SDS011;2501;51.214;6.768;2022-12-20T03:56:34;7.90;;;4.70;;
4971;SDS011;2501;51.214;6.768;2022-12-20T03:59:03;7.45;;;4.70;;
4971;SDS011;2501;51.214;6.768;2022-12-20T04:01:31;9.55;;;4.93;;
4971;SDS011;2501;51.214;6.768;2022-12-20T04:04:01;5.70;;;5.10;;
4971;SDS011;2501;51.214;6.768;2022-12-20T04:06:30;10.35;;;5.40;;
4971;SDS011;2501;51.214;6.768;2022-12-20T04:09:01;11.05;;;4.97;;
4971;SDS011;2501;51.214;6.768;2022-12-20T04:11:29;6.47;;;5.28;;
4971;SDS011;2501;51.214;6.768;2022-12-20T04:13:58;5.30;;;4.80;;
4971;SDS011;2501;51.214;6.768;2022-12-20T04:16:27;11.13;;;5.50;;
4971;SDS011;2501;51.214;6.768;2022-12-20T04:18:56;9.52;;;5.20;;
4971;SDS011;2501;51.214;6.768;2022-12-20T04:21:26;8.68;;;5.68;;
4971;SDS011;2501;51.214;6.768;2022-12-20T04:23:56;11.45;;;5.25;;
4971;SDS011;2501;51.214;6.768;2022-12-20T04:26:28;8.10;;;6.20;;
4971;SDS011;2501;51.214;6.768;2022-12-20T04:28:56;7.20;;;5.80;;
4971;SDS011;2501;51.214;6.768;2022-12-20T04:31:25;6.20;;;5.20;;
4971;SDS011;2501;51.214;6.768;2022-12-20T04:33:53;10.95;;;5.60;;
4971;SDS011;2501;51.214;6.768;2022-12-20T04:36:22;8.45;;;6.00;;
4971;SDS011;2501;51.214;6.768;2022-12-20T04:38:50;8.15;;;5.70;;
4971;SDS011;2501;51.214;6.768;2022-12-20T04:41:19;8.10;;;5.60;;
4971;SDS011;2501;51.214;6.768;2022-12-20T04:43:54;6.90;;;5.60;;
4971;SDS011;2501;51.214;6.768;2022-12-20T04:46:24;15.75;;;7.35;;
4971;SDS011;2501;51.214;6.768;2022-12-20T04:48:53;13.50;;;6.07;;
4971;SDS011;2501;51.214;6.768;2022-12-20T04:51:21;10.02;;;6.30;;
4971;SDS011;2501;51.214;6.768;2022-12-20T04:53:50;9.43;;;6.40;;
4971;SDS011;2501;51.214;6.768;2022-12-20T04:56:16;9.57;;;6.10;;
4971;SDS011;2501;51.214;6.768;2022-12-20T04:58:46;9.75;;;5.90;;
4971;SDS011;2501;51.214;6.768;2022-12-20T05:01:18;10.00;;;6.10;;
4971;SDS011;2501;51.214;6.768;2022-12-20T05:03:47;13.02;;;6.60;;
4971;SDS011;2501;51.214;6.768;2022-12-20T05:06:16;10.10;;;6.30;;
4971;SDS011;2501;51.214;6.768;2022-12-20T05:08:45;9.48;;;5.68;;
4971;SDS011;2501;51.214;6.768;2022-12-20T05:11:13;8.90;;;6.07;;
4971;SDS011;2501;51.214;6.768;2022-12-20T05:13:42;10.35;;;6.28;;
4971;SDS011;2501;51.214;6.768;2022-12-20T05:16:10;9.98;;;6.68;;
4971;SDS011;2501;51.214;6.768;2022-12-20T05:18:41;7.47;;;5.72;;
4971;SDS011;2501;51.214;6.768;2022-12-20T05:21:10;7.20;;;5.80;;
4971;SDS011;2501;51.214;6.768;2022-12-20T05:23:53;8.57;;;6.03;;
4971;SDS011;2501;51.214;6.768;2022-12-20T05:26:34;8.10;;;5.80;;
4971;SDS011;2501;51.214;6.768;2022-12-20T05:29:04;7.90;;;6.47;;
4971;SDS011;2501;51.214;6.768;2022-12-20T05:31:33;10.00;;;6.10;;
4971;SDS011;2501;51.214;6.768;2022-12-20T05:34:04;12.00;;;6.80;;
4971;SDS011;2501;51.214;6.768;2022-12-20T05:36:32;9.18;;;7.15;;
4971;SDS011;2501;51.214;6.768;2022-12-20T05:39:01;11.63;;;7.30;;
4971;SDS011;2501;51.214;6.768;2022-12-20T05:41:30;12.15;;;6.70;;
4971;SDS011;2501;51.214;6.768;2022-12-20T05:43:59;9.57;;;6.22;;
4971;SDS011;2501;51.214;6.768;2022-12-20T05:46:27;6.20;;;5.60;;
4971;SDS011;2501;51.214;6.768;2022-12-20T05:48:55;10.82;;;6.30;;
4971;SDS011;2501;51.214;6.768;2022-12-20T05:51:26;11.55;;;5.70;;
4971;SDS011;2501;51.214;6.768;2022-12-20T05:53:55;12.00;;;7.22;;
4971;SDS011;2501;51.214;6.768;2022-12-20T05:56:23;6.72;;;5.30;;
4971;SDS011;2501;51.214;6.768;2022-12-20T05:58:52;6.60;;;4.80;;
4971;SDS011;2501;51.214;6.768;2022-12-20T06:01:21;7.80;;;5.10;;
4971;SDS011;2501;51.214;6.768;2022-12-20T06:03:50;9.55;;;6.07;;
4971;SDS011;2501;51.214;6.768;2022-12-20T06:06:18;9.27;;;5.50;;
4971;SDS011;2501;51.214;6.768;2022-12-20T06:08:49;8.18;;;5.45;;
4971;SDS011;2501;51.214;6.768;2022-12-20T06:11:18;9.95;;;5.70;;
4971;SDS011;2501;51.214;6.768;2022-12-20T06:13:46;6.80;;;4.95;;
4971;SDS011;2501;51.214;6.768;2022-12-20T06:16:14;9.77;;;4.97;;
4971;SDS011;2501;51.214;6.768;2022-12-20T06:18:44;7.00;;;4.60;;
4971;SDS011;2501;51.214;6.768;2022-12-20T06:21:13;6.95;;;4.70;;
4971;SDS011;2501;51.214;6.768;2022-12-20T06:23:42;8.33;;;4.83;;
4971;SDS011;2501;51.214;6.768;2022-12-20T06:26:13;8.30;;;5.22;;
4971;SDS011;2501;51.214;6.768;2022-12-20T06:28:43;8.30;;;5.15;;
4971;SDS011;2501;51.214;6.768;2022-12-20T06:31:16;7.35;;;5.00;;
4971;SDS011;2501;51.214;6.768;2022-12-20T06:33:44;6.87;;;4.60;;
4971;SDS011;2501;51.214;6.768;2022-12-20T06:36:13;7.20;;;5.22;;
4971;SDS011;2501;51.214;6.768;2022-12-20T06:38:41;9.07;;;5.45;;
4971;SDS011;2501;51.214;6.768;2022-12-20T06:41:12;6.40;;;5.40;;
4971;SDS011;2501;51.214;6.768;2022-12-20T06:43:41;7.03;;;5.38;;
4971;SDS011;2501;51.214;6.768;2022-12-20T06:46:09;9.75;;;5.40;;
4971;SDS011;2501;51.214;6.768;2022-12-20T06:48:38;8.77;;;5.10;;
4971;SDS011;2501;51.214;6.768;2022-12-20T06:51:06;9.73;;;5.18;;
4971;SDS011;2501;51.214;6.768;2022-12-20T06:53:35;7.72;;;5.43;;
4971;SDS011;2501;51.214;6.768;2022-12-20T06:56:04;8.68;;;5.47;;
4971;SDS011;2501;51.214;6.768;2022-12-20T06:58:36;9.23;;;5.97;;
4971;SDS011;2501;51.214;6.768;2022-12-20T07:01:04;7.47;;;5.00;;
4971;SDS011;2501;51.214;6.768;2022-12-20T07:03:33;9.00;;;5.45;;
4971;SDS011;2501;51.214;6.768;2022-12-20T07:06:01;5.43;;;4.93;;
4971;SDS011;2501;51.214;6.768;2022-12-20T07:08:30;11.75;;;5.72;;
4971;SDS011;2501;51.214;6.768;2022-12-20T07:11:02;11.02;;;5.20;;
4971;SDS011;2501;51.214;6.768;2022-12-20T07:13:31;6.63;;;5.40;;
4971;SDS011;2501;51.214;6.768;2022-12-20T07:16:03;8.00;;;4.83;;
4971;SDS011;2501;51.214;6.768;2022-12-20T07:18:32;8.90;;;5.40;;
4971;SDS011;2501;51.214;6.768;2022-12-20T07:21:01;6.00;;;5.40;;
4971;SDS011;2501;51.214;6.768;2022-12-20T07:23:31;9.83;;;5.60;;
4971;SDS011;2501;51.214;6.768;2022-12-20T07:26:01;6.03;;;4.80;;
4971;SDS011;2501;51.214;6.768;2022-12-20T07:28:30;6.93;;;4.63;;
4971;SDS011;2501;51.214;6.768;2022-12-20T07:30:59;9.48;;;5.40;;
4971;SDS011;2501;51.214;6.768;2022-12-20T07:33:31;7.22;;;5.05;;
4971;SDS011;2501;51.214;6.768;2022-12-20T07:36:01;8.90;;;5.25;;
4971;SDS011;2501;51.214;6.768;2022-12-20T07:38:30;8.03;;;5.40;;
4971;SDS011;2501;51.214;6.768;2022-12-20T07:40:59;5.15;;;4.75;;
4971;SDS011;2501;51.214;6.768;2022-12-20T07:43:28;9.27;;;5.20;;
4971;SDS011;2501;51.214;6.768;2022-12-20T07:45:56;6.22;;;4.53;;
4971;SDS011;2501;51.214;6.768;2022-12-20T07:48:24;8.50;;;5.57;;
4971;SDS011;2501;51.214;6.768;2022-12-20T07:50:56;9.17;;;4.80;;
4971;SDS011;2501;51.214;6.768;2022-12-20T07:53:28;5.70;;;5.03;;
4971;SDS011;2501;51.214;6.768;2022-12-20T07:55:58;9.85;;;5.38;;
4971;SDS011;2501;51.214;6.768;2022-12-20T07:58:29;9.90;;;5.50;;
4971;SDS011;2501;51.214;6.768;2022-12-20T08:00:58;10.15;;;5.50;;
4971;SDS011;2501;51.214;6.768;2022-12-20T08:03:29;7.55;;;5.40;;
4971;SDS011;2501;51.214;6.768;2022-12-20T08:06:07;9.07;;;4.68;;
4971;SDS011;2501;51.214;6.768;2022-12-20T08:08:37;9.18;;;4.88;;
4971;SDS011;2501;51.214;6.768;2022-12-20T08:11:10;8.02;;;5.35;;
4971;SDS011;2501;51.214;6.768;2022-12-20T08:13:38;5.97;;;5.07;;
4971;SDS011;2501;51.214;6.768;2022-12-20T08:16:07;7.30;;;4.60;;
4971;SDS011;2501;51.214;6.768;2022-12-20T08:18:36;7.32;;;4.95;;
4971;SDS011;2501;51.214;6.768;2022-12-20T08:21:07;10.55;;;4.88;;
4971;SDS011;2501;51.214;6.768;2022-12-20T08:23:37;11.73;;;5.30;;
4971;SDS011;2501;51.214;6.768;2022-12-20T08:26:05;8.35;;;5.22;;
4971;SDS011;2501;51.214;6.768;2022-12-20T08:28:34;12.30;;;5.03;;
4971;SDS011;2501;51.214;6.768;2022-12-20T08:31:03;8.20;;;4.70;;
4971;SDS011;2501;51.214;6.768;2022-12-20T08:33:34;10.65;;;5.40;;
4971;SDS011;2501;51.214;6.768;2022-12-20T08:36:08;6.93;;;4.60;;
4971;SDS011;2501;51.214;6.768;2022-12-20T08:38:38;6.97;;;4.80;;
4971;SDS011;2501;51.214;6.768;2022-12-20T08:41:08;8.70;;;5.70;;
4971;SDS011;2501;51.214;6.768;2022-12-20T08:43:39;11.18;;;5.50;;
4971;SDS011;2501;51.214;6.768;2022-12-20T08:46:09;6.85;;;5.00;;
4971;SDS011;2501;51.214;6.768;2022-12-20T08:48:38;9.50;;;4.68;;
4971;SDS011;2501;51.214;6.768;2022-12-20T08:51:10;6.05;;;4.68;;
4971;SDS011;2501;51.214;6.768;2022-12-20T08:53:38;5.50;;;4.70;;
4971;SDS011;2501;51.214;6.768;2022-12-20T08:56:07;6.75;;;4.95;;
4971;SDS011;2501;51.214;6.768;2022-12-20T08:58:37;7.72;;;5.15;;
4971;SDS011;2501;51.214;6.768;2022-12-20T09:01:07;7.75;;;4.30;;
4971;SDS011;2501;51.214;6.768;2022-12-20T09:03:38;5.50;;;4.95;;
4971;SDS011;2501;51.214;6.768;2022-12-20T09:06:08;8.07;;;5.10;;
4971;SDS011;2501;51.214;6.768;2022-12-20T09:08:40;6.55;;;4.80;;
4971;SDS011;2501;51.214;6.768;2022-12-20T09:11:10;6.45;;;4.80;;
4971;SDS011;2501;51.214;6.768;2022-12-20T09:13:41;7.88;;;4.93;;
4971;SDS011;2501;51.214;6.768;2022-12-20T09:16:11;5.05;;;4.57;;
4971;SDS011;2501;51.214;6.768;2022-12-20T09:18:41;15.17;;;10.83;;
4971;SDS011;2501;51.214;6.768;2022-12-20T09:21:13;9.10;;;5.10;;
4971;SDS011;2501;51.214;6.768;2022-12-20T09:23:42;9.93;;;5.00;;
4971;SDS011;2501;51.214;6.768;2022-12-20T09:26:11;5.03;;;4.63;;
4971;SDS011;2501;51.214;6.768;2022-12-20T09:28:40;10.65;;;4.75;;
4971;SDS011;2501;51.214;6.768;2022-12-20T09:31:10;8.48;;;4.57;;
4971;SDS011;2501;51.214;6.768;2022-12-20T09:33:40;9.63;;;5.10;;
4971;SDS011;2501;51.214;6.768;2022-12-20T09:36:09;7.07;;;4.90;;
4971;SDS011;2501;51.214;6.768;2022-12-20T09:38:43;6.85;;;4.55;;
4971;SDS011;2501;51.214;6.768;2022-12-20T09:41:18;7.17;;;4.60;;
4971;SDS011;2501;51.214;6.768;2022-12-20T09:43:53;7.43;;;4.70;;
4971;SDS011;2501;51.214;6.768;2022-12-20T09:46:22;4.85;;;4.45;;
4971;SDS011;2501;51.214;6.768;2022-12-20T09:48:51;7.18;;;4.50;;
4971;SDS011;2501;51.214;6.768;2022-12-20T09:51:28;4.38;;;4.00;;
4971;SDS011;2501;51.214;6.768;2022-12-20T09:54:15;6.07;;;4.60;;
4971;SDS011;2501;51.214;6.768;2022-12-20T09:56:54;10.32;;;4.28;;
4971;SDS011;2501;51.214;6.768;2022-12-20T09:59:26;7.85;;;4.95;;
4971;SDS011;2501;51.214;6.768;2022-12-20T10:01:55;6.70;;;4.40;;
4971;SDS011;2501;51.214;6.768;2022-12-20T10:04:25;6.35;;;5.00;;
4971;SDS011;2501;51.214;6.768;2022-12-20T10:07:09;6.70;;;4.40;;
4971;SDS011;2501;51.214;6.768;2022-12-20T10:09:56;6.95;;;4.30;;
4971;SDS011;2501;51.214;6.768;2022-12-20T10:12:34;8.80;;;4.68;;
4971;SDS011;2501;51.214;6.768;2022-12-20T10:15:19;7.32;;;5.15;;
4971;SDS011;2501;51.214;6.768;2022-12-20T10:17:53;5.90;;;4.50;;
4971;SDS011;2501;51.214;6.768;2022-12-20T10:20:33;7.70;;;5.73;;
4971;SDS011;2501;51.214;6.768;2022-12-20T10:23:18;11.20;;;5.75;;
4971;SDS011;2501;51.214;6.768;2022-12-20T10:25:50;6.28;;;4.68;;
4971;SDS011;2501;51.214;6.768;2022-12-20T10:28:23;7.47;;;4.90;;
4971;SDS011;2501;51.214;6.768;2022-12-20T10:30:55;8.45;;;4.93;;
4971;SDS011;2501;51.214;6.768;2022-12-20T10:33:26;5.78;;;4.50;;
4971;SDS011;2501;51.214;6.768;2022-12-20T10:35:55;7.00;;;5.07;;
4971;SDS011;2501;51.214;6.768;2022-12-20T10:38:47;16.50;;;5.20;;
4971;SDS011;2501;51.214;6.768;2022-12-20T10:41:18;6.60;;;4.75;;
4971;SDS011;2501;51.214;6.768;2022-12-20T10:43:48;11.35;;;5.80;;
4971;SDS011;2501;51.214;6.768;2022-12-20T10:46:20;10.95;;;4.90;;
4971;SDS011;2501;51.214;6.768;2022-12-20T10:48:50;5.70;;;4.50;;
4971;SDS011;2501;51.214;6.768;2022-12-20T10:51:19;7.93;;;4.80;;
4971;SDS011;2501;51.214;6.768;2022-12-20T10:53:52;7.50;;;4.37;;
4971;SDS011;2501;51.214;6.768;2022-12-20T10:56:23;5.83;;;4.17;;
4971;SDS011;2501;51.214;6.768;2022-12-20T10:58:56;10.75;;;4.13;;
4971;SDS011;2501;51.214;6.768;2022-12-20T11:01:27;5.30;;;4.60;;
4971;SDS011;2501;51.214;6.768;2022-12-20T11:03:59;7.90;;;4.27;;
4971;SDS011;2501;51.214;6.768;2022-12-20T11:06:39;6.40;;;4.43;;
4971;SDS011;2501;51.214;6.768;2022-12-20T11:09:28;7.30;;;5.40;;
4971;SDS011;2501;51.214;6.768;2022-12-20T11:11:59;8.57;;;5.50;;
4971;SDS011;2501;51.214;6.768;2022-12-20T11:14:29;8.70;;;4.38;;
4971;SDS011;2501;51.214;6.768;2022-12-20T11:16:59;9.77;;;4.32;;
4971;SDS011;2501;51.214;6.768;2022-12-20T11:19:52;4.97;;;4.47;;
4971;SDS011;2501;51.214;6.768;2022-12-20T11:22:31;9.70;;;4.23;;
4971;SDS011;2501;51.214;6.768;2022-12-20T11:25:16;8.35;;;4.00;;
4971;SDS011;2501;51.214;6.768;2022-12-20T11:27:59;7.97;;;4.38;;
4971;SDS011;2501;51.214;6.768;2022-12-20T11:30:39;7.05;;;3.90;;
4971;SDS011;2501;51.214;6.768;2022-12-20T11:33:27;6.78;;;3.90;;
4971;SDS011;2501;51.214;6.768;2022-12-20T11:36:09;6.80;;;4.60;;
4971;SDS011;2501;51.214;6.768;2022-12-20T11:38:45;6.22;;;4.20;;
4971;SDS011;2501;51.214;6.768;2022-12-20T11:41:23;12.80;;;8.48;;
4971;SDS011;2501;51.214;6.768;2022-12-20T11:44:10;6.10;;;4.30;;
4971;SDS011;2501;51.214;6.768;2022-12-20T11:46:48;7.17;;;4.67;;
4971;SDS011;2501;51.214;6.768;2022-12-20T11:49:34;10.73;;;4.37;;
4971;SDS011;2501;51.214;6.768;2022-12-20T11:52:17;8.47;;;4.83;;
4971;SDS011;2501;51.214;6.768;2022-12-20T11:55:03;8.77;;;5.03;;
4971;SDS011;2501;51.214;6.768;2022-12-20T11:57:39;6.40;;;4.65;;
4971;SDS011;2501;51.214;6.768;2022-12-20T12:00:14;7.78;;;5.07;;
4971;SDS011;2501;51.214;6.768;2022-12-20T12:02:45;8.68;;;4.80;;
4971;SDS011;2501;51.214;6.768;2022-12-20T12:05:19;6.80;;;4.47;;
4971;SDS011;2501;51.214;6.768;2022-12-20T12:07:55;6.38;;;5.30;;
4971;SDS011;2501;51.214;6.768;2022-12-20T12:10:28;9.75;;;5.43;;
4971;SDS011;2501;51.214;6.768;2022-12-20T12:13:05;8.80;;;4.88;;
4971;SDS011;2501;51.214;6.768;2022-12-20T12:18:28;6.85;;;4.90;;
4971;SDS011;2501;51.214;6.768;2022-12-20T12:21:01;6.97;;;5.20;;
4971;SDS011;2501;51.214;6.768;2022-12-20T12:23:37;5.78;;;4.55;;
4971;SDS011;2501;51.214;6.768;2022-12-20T12:26:21;5.05;;;3.72;;
4971;SDS011;2501;51.214;6.768;2022-12-20T12:28:59;5.47;;;4.18;;
4971;SDS011;2501;51.214;6.768;2022-12-20T12:31:31;5.97;;;3.50;;
4971;SDS011;2501;51.214;6.768;2022-12-20T12:34:05;4.82;;;4.07;;
4971;SDS011;2501;51.214;6.768;2022-12-20T12:36:47;6.95;;;3.60;;
4971;SDS011;2501;51.214;6.768;2022-12-20T12:39:41;6.18;;;3.67;;
4971;SDS011;2501;51.214;6.768;2022-12-20T12:42:31;7.20;;;3.75;;
4971;SDS011;2501;51.214;6.768;2022-12-20T12:45:29;5.43;;;4.20;;
4971;SDS011;2501;51.214;6.768;2022-12-20T12:48:03;7.50;;;4.25;;
4971;SDS011;2501;51.214;6.768;2022-12-20T12:50:41;6.47;;;3.20;;
4971;SDS011;2501;51.214;6.768;2022-12-20T12:53:14;7.33;;;4.63;;
4971;SDS011;2501;51.214;6.768;2022-12-20T12:55:47;7.20;;;4.80;;
4971;SDS011;2501;51.214;6.768;2022-12-20T13:01:11;6.50;;;4.38;;
4971;SDS011;2501;51.214;6.768;2022-12-20T13:04:19;8.00;;;3.40;;
4971;SDS011;2501;51.214;6.768;2022-12-20T13:06:58;7.90;;;4.75;;
4971;SDS011;2501;51.214;6.768;2022-12-20T13:09:38;7.50;;;3.73;;
4971;SDS011;2501;51.214;6.768;2022-12-20T13:27:22;10.32;;;5.57;;
4971;SDS011;2501;51.214;6.768;2022-12-20T13:30:00;12.43;;;5.05;;
4971;SDS011;2501;51.214;6.768;2022-12-20T13:32:57;8.60;;;5.32;;
4971;SDS011;2501;51.214;6.768;2022-12-20T13:35:53;10.52;;;5.50;;
4971;SDS011;2501;51.214;6.768;2022-12-20T13:41:34;14.55;;;5.43;;
4971;SDS011;2501;51.214;6.768;2022-12-20T13:44:14;9.45;;;4.93;;
4971;SDS011;2501;51.214;6.768;2022-12-20T13:46:55;10.07;;;4.88;;
4971;SDS011;2501;51.214;6.768;2022-12-20T13:49:28;14.35;;;8.35;;
4971;SDS011;2501;51.214;6.768;2022-12-20T13:54:54;5.47;;;4.22;;
4971;SDS011;2501;51.214;6.768;2022-12-20T13:57:26;10.07;;;6.23;;
4971;SDS011;2501;51.214;6.768;2022-12-20T13:59:58;10.57;;;5.50;;
4971;SDS011;2501;51.214;6.768;2022-12-20T14:02:32;9.50;;;5.30;;
4971;SDS011;2501;51.214;6.768;2022-12-20T14:05:04;12.35;;;6.18;;
4971;SDS011;2501;51.214;6.768;2022-12-20T14:07:35;13.03;;;7.07;;
4971;SDS011;2501;51.214;6.768;2022-12-20T14:10:16;11.57;;;7.22;;
4971;SDS011;2501;51.214;6.768;2022-12-20T14:12:46;15.45;;;8.00;;
4971;SDS011;2501;51.214;6.768;2022-12-20T14:15:24;19.83;;;8.50;;
4971;SDS011;2501;51.214;6.768;2022-12-20T14:17:55;10.70;;;6.72;;
4971;SDS011;2501;51.214;6.768;2022-12-20T14:20:25;15.90;;;8.00;;
4971;SDS011;2501;51.214;6.768;2022-12-20T14:22:58;16.88;;;8.57;;
4971;SDS011;2501;51.214;6.768;2022-12-20T14:25:36;18.93;;;9.20;;
4971;SDS011;2501;51.214;6.768;2022-12-20T14:28:14;12.20;;;6.68;;
4971;SDS011;2501;51.214;6.768;2022-12-20T14:30:46;14.25;;;8.00;;
4971;SDS011;2501;51.214;6.768;2022-12-20T14:33:18;17.33;;;8.27;;
4971;SDS011;2501;51.214;6.768;2022-12-20T14:35:48;20.15;;;8.38;;
4971;SDS011;2501;51.214;6.768;2022-12-20T14:38:19;15.60;;;8.40;;
4971;SDS011;2501;51.214;6.768;2022-12-20T14:40:52;18.60;;;9.02;;
4971;SDS011;2501;51.214;6.768;2022-12-20T14:43:23;14.10;;;7.70;;
4971;SDS011;2501;51.214;6.768;2022-12-20T14:46:07;18.13;;;9.95;;
4971;SDS011;2501;51.214;6.768;2022-12-20T14:48:43;17.48;;;8.05;;
4971;SDS011;2501;51.214;6.768;2022-12-20T14:51:12;21.98;;;9.10;;
4971;SDS011;2501;51.214;6.768;2022-12-20T14:53:47;20.48;;;9.13;;
4971;SDS011;2501;51.214;6.768;2022-12-20T14:56:20;23.92;;;11.88;;
4971;SDS011;2501;51.214;6.768;2022-12-20T14:59:00;26.52;;;12.70;;
4971;SDS011;2501;51.214;6.768;2022-12-20T15:01:32;24.85;;;11.20;;
4971;SDS011;2501;51.214;6.768;2022-12-20T15:04:00;20.52;;;9.90;;
4971;SDS011;2501;51.214;6.768;2022-12-20T15:06:30;26.77;;;13.73;;
4971;SDS011;2501;51.214;6.768;2022-12-20T15:09:00;23.50;;;12.07;;
4971;SDS011;2501;51.214;6.768;2022-12-20T15:11:32;25.23;;;10.98;;
4971;SDS011;2501;51.214;6.768;2022-12-20T15:14:04;19.90;;;8.90;;
4971;SDS011;2501;51.214;6.768;2022-12-20T15:16:49;23.43;;;11.17;;
4971;SDS011;2501;51.214;6.768;2022-12-20T15:19:17;17.90;;;10.20;;
4971;SDS011;2501;51.214;6.768;2022-12-20T15:21:46;19.65;;;10.55;;
4971;SDS011;2501;51.214;6.768;2022-12-20T15:24:16;18.65;;;11.35;;
4971;SDS011;2501;51.214;6.768;2022-12-20T15:26:48;22.83;;;10.10;;
4971;SDS011;2501;51.214;6.768;2022-12-20T15:29:18;19.00;;;9.65;;
4971;SDS011;2501;51.214;6.768;2022-12-20T15:31:48;12.20;;;7.80;;
4971;SDS011;2501;51.214;6.768;2022-12-20T15:34:18;15.25;;;8.20;;
4971;SDS011;2501;51.214;6.768;2022-12-20T15:36:55;11.88;;;7.25;;
4971;SDS011;2501;51.214;6.768;2022-12-20T15:39:24;12.57;;;6.30;;
4971;SDS011;2501;51.214;6.768;2022-12-20T15:41:55;10.65;;;6.70;;
4971;SDS011;2501;51.214;6.768;2022-12-20T15:44:27;10.85;;;6.50;;
4971;SDS011;2501;51.214;6.768;2022-12-20T15:46:57;14.20;;;7.10;;
4971;SDS011;2501;51.214;6.768;2022-12-20T15:49:26;11.57;;;6.55;;
4971;SDS011;2501;51.214;6.768;2022-12-20T15:51:57;13.75;;;6.80;;
4971;SDS011;2501;51.214;6.768;2022-12-20T15:54:26;11.77;;;6.33;;
4971;SDS011;2501;51.214;6.768;2022-12-20T15:57:01;13.27;;;6.60;;
4971;SDS011;2501;51.214;6.768;2022-12-20T15:59:31;15.10;;;7.95;;
4971;SDS011;2501;51.214;6.768;2022-12-20T16:02:00;10.35;;;6.60;;
4971;SDS011;2501;51.214;6.768;2022-12-20T16:04:29;9.77;;;7.10;;
4971;SDS011;2501;51.214;6.768;2022-12-20T16:06:57;12.68;;;7.57;;
4971;SDS011;2501;51.214;6.768;2022-12-20T16:09:26;14.35;;;6.60;;